This is the latest recevied weather packets stored in our database for station/object SQ3VAS-10. If no packets are shown the sender has not sent any weather packets the latest 10 day(s).
| Time | Temp. | Humidity | Pressure | Rain* | Wind** | Luminosity | Snow |
|---|---|---|---|---|---|---|---|
| 1777701491 | 13.33° C | 59% | 1024.6 hPa | - | - | - | - |
| 1777700916 | 12.78° C | 60% | 1024.6 hPa | - | - | - | - |
| 1777700343 | 11.11° C | 64% | 1024.7 hPa | - | - | - | - |
| 1777699769 | 10.56° C | 66% | 1024.7 hPa | - | - | - | - |
| 1777699196 | 10° C | 69% | 1024.8 hPa | - | - | - | - |
| 1777698623 | 8.89° C | 71% | 1024.8 hPa | - | - | - | - |
| 1777698050 | 8.33° C | 73% | 1024.9 hPa | - | - | - | - |
| 1777697478 | 7.78° C | 73% | 1025 hPa | - | - | - | - |
| 1777696904 | 7.22° C | 75% | 1025 hPa | - | - | - | - |
| 1777696331 | 6.67° C | 76% | 1025.1 hPa | - | - | - | - |
| 1777695759 | 6.67° C | 76% | 1025 hPa | - | - | - | - |
| 1777695187 | 6.67° C | 76% | 1025.1 hPa | - | - | - | - |
| 1777694615 | 6.67° C | 76% | 1025.2 hPa | - | - | - | - |
| 1777694044 | 6.11° C | 77% | 1025.1 hPa | - | - | - | - |
| 1777693473 | 6.11° C | 78% | 1025.2 hPa | - | - | - | - |
| 1777692900 | 6.11° C | 77% | 1025.3 hPa | - | - | - | - |
| 1777692328 | 6.11° C | 78% | 1025.4 hPa | - | - | - | - |
| 1777691757 | 6.11° C | 77% | 1025.3 hPa | - | - | - | - |
| 1777691185 | 6.67° C | 76% | 1025.3 hPa | - | - | - | - |
| 1777690628 | 6.67° C | 76% | 1025.4 hPa | - | - | - | - |
| 1777690042 | 7.22° C | 74% | 1025.4 hPa | - | - | - | - |
| 1777689471 | 7.22° C | 74% | 1025.4 hPa | - | - | - | - |
| 1777688899 | 7.22° C | 73% | 1025.4 hPa | - | - | - | - |
| 1777688327 | 6.67° C | 76% | 1025.4 hPa | - | - | - | - |
| 1777687755 | 7.22° C | 76% | 1025.5 hPa | - | - | - | - |
* Rain since midnight (hover to see other rain measurements)
** Current wind speed in m/s (hover to see current wind gust speed)